Time;durP1;ratioP1;P1;durP2;ratioP2;P2;SDS_P1;SDS_P2;PMS_P1;PMS_P2;Temp;Humidity;BMP_temperature;BMP_pressure;BME280_temperature;BME280_humidity;BME280_pressure;Samples;Min_cycle;Max_cycle;Signal;HPM_P1;HPM_P2
2023/03/17 00:01:20;;;;;;;6.65;4.32;;;;;;;;;;5103352;28;20226;-68
2023/03/17 00:03:48;;;;;;;6.18;4.25;;;;;;;;;;5103409;28;20503;-68
2023/03/17 00:06:16;;;;;;;8.38;4.07;;;;;;;;;;5103588;28;20195;-68
2023/03/17 00:08:45;;;;;;;3.88;3.58;;;;;;;;;;5103198;28;20309;-68
2023/03/17 00:11:12;;;;;;;4.40;4.00;;;;;;;;;;5103172;28;20234;-68
2023/03/17 00:13:38;;;;;;;4.18;3.55;;;;;;;;;;5103156;28;20227;-68
2023/03/17 00:16:10;;;;;;;3.47;3.28;;;;;;;;;;5103022;28;20199;-68
2023/03/17 00:18:37;;;;;;;4.30;3.45;;;;;;;;;;5103155;28;20219;-68
2023/03/17 00:21:03;;;;;;;3.45;3.15;;;;;;;;;;5103259;28;20364;-68
2023/03/17 00:23:30;;;;;;;3.38;3.10;;;;;;;;;;5103074;28;20195;-68
2023/03/17 00:25:57;;;;;;;3.65;3.35;;;;;;;;;;5103494;28;20203;-68
2023/03/17 00:28:24;;;;;;;3.17;2.88;;;;;;;;;;5102854;28;20211;-68
2023/03/17 00:30:54;;;;;;;4.53;3.50;;;;;;;;;;5102850;28;20433;-68
2023/03/17 00:33:22;;;;;;;3.42;3.13;;;;;;;;;;5103200;28;20195;-68
2023/03/17 00:35:49;;;;;;;4.13;3.35;;;;;;;;;;5103023;28;20231;-68
2023/03/17 00:38:16;;;;;;;3.75;3.45;;;;;;;;;;5102809;28;20239;-68
2023/03/17 00:40:43;;;;;;;4.35;3.60;;;;;;;;;;5102542;28;20241;-68
2023/03/17 00:43:11;;;;;;;3.78;3.58;;;;;;;;;;5103097;28;20245;-68
2023/03/17 00:45:38;;;;;;;5.15;4.13;;;;;;;;;;5102884;28;20266;-68
2023/03/17 00:48:10;;;;;;;5.30;4.78;;;;;;;;;;5103171;28;20431;-68
2023/03/17 00:50:37;;;;;;;4.85;4.43;;;;;;;;;;5102664;28;20248;-68
2023/03/17 00:53:03;;;;;;;4.80;4.30;;;;;;;;;;5102913;28;20499;-68
2023/03/17 00:55:29;;;;;;;4.93;4.25;;;;;;;;;;5102066;28;20188;-68
2023/03/17 00:57:56;;;;;;;5.22;4.72;;;;;;;;;;5102327;28;20228;-68
2023/03/17 01:00:25;;;;;;;4.82;4.43;;;;;;;;;;5102597;28;20267;-68
2023/03/17 01:02:52;;;;;;;4.65;4.05;;;;;;;;;;5102632;28;20421;-68
2023/03/17 01:05:19;;;;;;;5.18;4.57;;;;;;;;;;5102428;28;20196;-68
2023/03/17 01:07:51;;;;;;;6.20;4.80;;;;;;;;;;5102376;28;20203;-68
2023/03/17 01:10:20;;;;;;;4.90;4.30;;;;;;;;;;5102087;28;20576;-68
2023/03/17 01:12:46;;;;;;;5.47;4.65;;;;;;;;;;5102506;28;20204;-68
2023/03/17 01:15:13;;;;;;;4.70;4.30;;;;;;;;;;5102531;28;20196;-68
2023/03/17 01:17:41;;;;;;;4.75;4.30;;;;;;;;;;5102096;28;20203;-68
2023/03/17 01:20:20;;;;;;;4.60;4.20;;;;;;;;;;5102212;28;20207;-68
2023/03/17 01:22:46;;;;;;;4.40;4.00;;;;;;;;;;5102179;28;20360;-68
2023/03/17 01:25:12;;;;;;;5.20;4.13;;;;;;;;;;5102118;28;20433;-68
2023/03/17 01:27:40;;;;;;;5.22;4.10;;;;;;;;;;5102241;28;20215;-68
2023/03/17 01:30:08;;;;;;;5.85;3.95;;;;;;;;;;5101976;28;20202;-68
2023/03/17 01:32:34;;;;;;;4.53;4.15;;;;;;;;;;5102325;28;20199;-68
2023/03/17 01:35:03;;;;;;;4.30;3.90;;;;;;;;;;5102046;28;20196;-68
2023/03/17 01:37:30;;;;;;;4.03;3.58;;;;;;;;;;5102040;28;20376;-68
2023/03/17 01:39:56;;;;;;;4.38;4.00;;;;;;;;;;5101760;28;20253;-68
2023/03/17 01:42:22;;;;;;;3.72;3.42;;;;;;;;;;5102056;28;20199;-68
2023/03/17 01:45:02;;;;;;;4.22;3.85;;;;;;;;;;5102124;28;20215;-69
2023/03/17 01:47:30;;;;;;;4.53;4.13;;;;;;;;;;5101935;28;20246;-68
2023/03/17 01:49:59;;;;;;;4.55;4.07;;;;;;;;;;5101701;28;20196;-68
2023/03/17 01:52:27;;;;;;;4.45;3.60;;;;;;;;;;5102229;28;20425;-68
2023/03/17 01:54:55;;;;;;;4.50;3.85;;;;;;;;;;5102082;28;20527;-68
2023/03/17 01:57:24;;;;;;;5.05;3.63;;;;;;;;;;5102058;28;20203;-68
2023/03/17 01:59:51;;;;;;;4.45;3.65;;;;;;;;;;5101600;28;20219;-68
2023/03/17 02:02:19;;;;;;;4.60;4.30;;;;;;;;;;5101943;28;20218;-68
2023/03/17 02:04:45;;;;;;;4.13;3.83;;;;;;;;;;5101867;28;20234;-68
2023/03/17 02:07:12;;;;;;;4.03;3.72;;;;;;;;;;5103315;28;20499;-68
2023/03/17 02:09:39;;;;;;;3.85;3.55;;;;;;;;;;5105739;28;20207;-68
2023/03/17 02:12:06;;;;;;;3.97;3.42;;;;;;;;;;5105602;28;20203;-68
2023/03/17 02:14:32;;;;;;;3.58;3.30;;;;;;;;;;5105570;28;20234;-68
2023/03/17 02:16:59;;;;;;;3.72;3.38;;;;;;;;;;5105471;28;20518;-68
2023/03/17 02:19:25;;;;;;;5.25;3.38;;;;;;;;;;5105527;28;20396;-68
2023/03/17 02:21:55;;;;;;;3.47;3.17;;;;;;;;;;5105176;28;20203;-68
2023/03/17 02:24:26;;;;;;;3.72;3.45;;;;;;;;;;5105586;28;20195;-68
2023/03/17 02:26:53;;;;;;;4.18;3.40;;;;;;;;;;5105349;28;20233;-68
2023/03/17 02:29:21;;;;;;;3.90;3.58;;;;;;;;;;5104967;28;20199;-68
2023/03/17 02:31:47;;;;;;;3.47;3.17;;;;;;;;;;5105289;28;20196;-68
2023/03/17 02:34:14;;;;;;;3.70;3.47;;;;;;;;;;5105510;28;20202;-68
2023/03/17 02:36:40;;;;;;;4.10;3.80;;;;;;;;;;5105317;28;20545;-68
2023/03/17 02:39:08;;;;;;;5.20;3.58;;;;;;;;;;5104841;28;20215;-68
2023/03/17 02:41:35;;;;;;;4.13;3.65;;;;;;;;;;5105212;28;20195;-68
2023/03/17 02:44:01;;;;;;;3.60;3.38;;;;;;;;;;5104982;28;20425;-68
2023/03/17 02:46:27;;;;;;;3.92;3.70;;;;;;;;;;5105298;28;20200;-68
2023/03/17 02:48:54;;;;;;;4.40;4.00;;;;;;;;;;5105206;28;20244;-68
2023/03/17 02:51:20;;;;;;;3.63;3.33;;;;;;;;;;5104559;28;20233;-68
2023/03/17 02:53:46;;;;;;;3.33;3.13;;;;;;;;;;5105002;28;20200;-68
2023/03/17 02:56:14;;;;;;;7.57;3.88;;;;;;;;;;5104920;28;20393;-68
2023/03/17 02:58:40;;;;;;;4.00;3.60;;;;;;;;;;5104729;28;20284;-68
2023/03/17 03:01:07;;;;;;;4.30;3.90;;;;;;;;;;5104812;28;20218;-68
2023/03/17 03:03:35;;;;;;;3.25;3.03;;;;;;;;;;5104862;28;20196;-68
2023/03/17 03:06:01;;;;;;;3.75;3.50;;;;;;;;;;5104896;28;20368;-68
2023/03/17 03:08:27;;;;;;;3.95;3.60;;;;;;;;;;5104946;28;20204;-68
2023/03/17 03:10:54;;;;;;;4.15;3.78;;;;;;;;;;5104509;28;20195;-68
2023/03/17 03:13:22;;;;;;;3.97;3.63;;;;;;;;;;5104755;28;20293;-68
2023/03/17 03:15:48;;;;;;;4.38;3.97;;;;;;;;;;5104468;28;20196;-68
2023/03/17 03:18:15;;;;;;;5.68;4.18;;;;;;;;;;5103880;28;20242;-68
2023/03/17 03:20:42;;;;;;;4.55;4.03;;;;;;;;;;5104152;28;20196;-68
2023/03/17 03:23:08;;;;;;;3.90;3.70;;;;;;;;;;5104114;28;20210;-68
2023/03/17 03:25:36;;;;;;;4.57;4.18;;;;;;;;;;5104360;28;20316;-68
2023/03/17 03:28:02;;;;;;;4.32;3.90;;;;;;;;;;5104148;28;20215;-68
2023/03/17 03:30:30;;;;;;;4.30;4.00;;;;;;;;;;5103993;28;20195;-68
2023/03/17 03:32:56;;;;;;;4.53;4.15;;;;;;;;;;5104142;28;20195;-68
2023/03/17 03:35:22;;;;;;;5.15;4.70;;;;;;;;;;5103875;28;20199;-68
2023/03/17 03:37:49;;;;;;;4.95;4.47;;;;;;;;;;5103852;28;20199;-68
2023/03/17 03:40:15;;;;;;;4.63;4.22;;;;;;;;;;5104063;28;20223;-68
2023/03/17 03:42:42;;;;;;;4.38;4.07;;;;;;;;;;5104167;28;20212;-68
2023/03/17 03:45:09;;;;;;;4.55;4.25;;;;;;;;;;5103802;28;20257;-68
2023/03/17 03:47:36;;;;;;;4.60;4.15;;;;;;;;;;5103991;28;20413;-68
2023/03/17 03:50:03;;;;;;;4.43;4.13;;;;;;;;;;5103355;28;20509;-68
2023/03/17 03:52:29;;;;;;;5.80;5.05;;;;;;;;;;5104033;28;20192;-68
2023/03/17 03:54:55;;;;;;;5.45;4.72;;;;;;;;;;5103705;28;20195;-68
2023/03/17 03:57:21;;;;;;;4.30;4.00;;;;;;;;;;5103772;28;20195;-68
2023/03/17 03:59:48;;;;;;;4.20;3.90;;;;;;;;;;5103190;28;20224;-68
2023/03/17 04:02:15;;;;;;;6.80;4.50;;;;;;;;;;5103550;28;20208;-68
2023/03/17 04:04:43;;;;;;;4.20;3.78;;;;;;;;;;5103203;28;20249;-69
2023/03/17 04:07:09;;;;;;;4.13;3.90;;;;;;;;;;5103444;28;20518;-67
2023/03/17 04:09:36;;;;;;;4.80;4.30;;;;;;;;;;5103228;28;20426;-68
2023/03/17 04:12:02;;;;;;;5.15;3.85;;;;;;;;;;5103371;28;20196;-68
2023/03/17 04:14:29;;;;;;;4.18;3.92;;;;;;;;;;5103407;28;20203;-68
2023/03/17 04:16:55;;;;;;;4.18;3.78;;;;;;;;;;5103142;28;20390;-67
2023/03/17 04:19:22;;;;;;;4.75;3.80;;;;;;;;;;5102805;28;20223;-68
2023/03/17 04:21:50;;;;;;;3.95;3.60;;;;;;;;;;5102981;28;20234;-67
2023/03/17 04:24:16;;;;;;;4.47;4.07;;;;;;;;;;5103152;28;20468;-68
2023/03/17 04:26:42;;;;;;;4.43;4.05;;;;;;;;;;5103323;28;20195;-68
2023/03/17 04:29:14;;;;;;;4.80;4.40;;;;;;;;;;5102489;28;20336;-68
2023/03/17 04:31:40;;;;;;;4.03;3.80;;;;;;;;;;5103109;28;20227;-67
2023/03/17 04:34:06;;;;;;;4.72;4.30;;;;;;;;;;5103180;28;20380;-67
2023/03/17 04:36:33;;;;;;;9.20;4.47;;;;;;;;;;5102961;28;20534;-67
2023/03/17 04:39:01;;;;;;;4.70;4.28;;;;;;;;;;5103099;28;20216;-67
2023/03/17 04:41:27;;;;;;;4.78;4.40;;;;;;;;;;5102614;28;20196;-67
2023/03/17 04:43:54;;;;;;;4.88;4.47;;;;;;;;;;5102868;28;20271;-68
2023/03/17 04:46:20;;;;;;;5.07;4.63;;;;;;;;;;5102658;28;20278;-67
2023/03/17 04:48:46;;;;;;;5.18;4.55;;;;;;;;;;5102784;28;20262;-70
2023/03/17 04:51:12;;;;;;;5.70;5.13;;;;;;;;;;5102741;28;20199;-67
2023/03/17 04:53:39;;;;;;;5.32;4.82;;;;;;;;;;5102914;28;20202;-67
2023/03/17 04:56:07;;;;;;;5.38;4.88;;;;;;;;;;5102463;28;20195;-68
2023/03/17 04:58:33;;;;;;;5.47;4.97;;;;;;;;;;5102588;28;20250;-67
2023/03/17 05:01:01;;;;;;;5.72;5.13;;;;;;;;;;5102234;28;20227;-67
2023/03/17 05:03:28;;;;;;;7.97;6.00;;;;;;;;;;5102622;28;20487;-67
2023/03/17 05:05:55;;;;;;;7.53;5.60;;;;;;;;;;5102661;28;20195;-68
2023/03/17 05:08:21;;;;;;;5.53;5.00;;;;;;;;;;5102572;28;20533;-68
2023/03/17 05:10:47;;;;;;;6.03;5.40;;;;;;;;;;5102164;28;20207;-68
2023/03/17 05:13:15;;;;;;;5.72;5.20;;;;;;;;;;5102188;28;20196;-68
2023/03/17 05:15:45;;;;;;;8.57;5.80;;;;;;;;;;5102372;28;20196;-70
2023/03/17 05:18:11;;;;;;;6.50;5.85;;;;;;;;;;5102289;28;20196;-69
2023/03/17 05:20:37;;;;;;;6.68;5.72;;;;;;;;;;5102306;28;20239;-70
2023/03/17 05:23:03;;;;;;;7.80;6.13;;;;;;;;;;5102449;28;20196;-69
2023/03/17 05:25:30;;;;;;;7.05;6.05;;;;;;;;;;5102249;28;20250;-69
2023/03/17 05:27:57;;;;;;;14.75;6.28;;;;;;;;;;5102105;28;20216;-69
2023/03/17 05:30:25;;;;;;;6.32;5.72;;;;;;;;;;5102027;28;20230;-69
2023/03/17 05:32:51;;;;;;;6.47;5.88;;;;;;;;;;5102334;28;20226;-71
2023/03/17 05:35:17;;;;;;;6.18;5.40;;;;;;;;;;5102164;28;20204;-69
2023/03/17 05:37:44;;;;;;;6.28;5.65;;;;;;;;;;5102300;28;20199;-69
2023/03/17 05:40:11;;;;;;;6.32;5.78;;;;;;;;;;5101988;28;20383;-69
2023/03/17 05:42:37;;;;;;;5.75;5.20;;;;;;;;;;5105929;28;20501;-69
2023/03/17 05:45:04;;;;;;;7.07;5.60;;;;;;;;;;5106342;28;20519;-69
2023/03/17 05:47:32;;;;;;;8.48;5.50;;;;;;;;;;5106274;28;20204;-69
2023/03/17 05:49:58;;;;;;;7.10;5.40;;;;;;;;;;5105860;28;20192;-69
2023/03/17 05:52:25;;;;;;;9.50;5.55;;;;;;;;;;5106214;28;20257;-69
2023/03/17 05:54:52;;;;;;;5.95;5.35;;;;;;;;;;5105950;28;20199;-69
2023/03/17 05:57:18;;;;;;;9.23;5.20;;;;;;;;;;5105852;28;20263;-69
2023/03/17 05:59:45;;;;;;;10.68;5.47;;;;;;;;;;5105497;28;20220;-69
2023/03/17 06:02:12;;;;;;;6.95;5.38;;;;;;;;;;5105828;28;20200;-70
2023/03/17 06:04:39;;;;;;;6.60;5.68;;;;;;;;;;5105822;28;20227;-69
2023/03/17 06:07:06;;;;;;;7.13;6.00;;;;;;;;;;5105583;28;20425;-69
2023/03/17 06:09:33;;;;;;;8.13;5.75;;;;;;;;;;5105158;28;20231;-69
2023/03/17 06:12:00;;;;;;;6.53;5.18;;;;;;;;;;5105500;28;20192;-69
2023/03/17 06:14:26;;;;;;;5.80;5.28;;;;;;;;;;5105457;28;20209;-69
2023/03/17 06:16:53;;;;;;;5.90;5.40;;;;;;;;;;5105829;28;20263;-69
2023/03/17 06:19:20;;;;;;;5.32;4.88;;;;;;;;;;5104978;28;20448;-69
2023/03/17 06:21:48;;;;;;;6.13;5.53;;;;;;;;;;5105625;28;20204;-69
2023/03/17 06:24:14;;;;;;;6.05;5.55;;;;;;;;;;5105348;28;20211;-69
2023/03/17 06:26:41;;;;;;;6.32;5.75;;;;;;;;;;5105135;28;20263;-69
2023/03/17 06:29:08;;;;;;;13.55;6.13;;;;;;;;;;5105134;28;20219;-69
2023/03/17 06:31:34;;;;;;;9.77;5.97;;;;;;;;;;5105172;28;20242;-69
2023/03/17 06:34:01;;;;;;;15.43;6.15;;;;;;;;;;5105059;28;20196;-69
2023/03/17 06:36:27;;;;;;;6.95;5.85;;;;;;;;;;5105020;28;20192;-69
2023/03/17 06:38:55;;;;;;;6.38;5.70;;;;;;;;;;5104953;28;20199;-69
2023/03/17 06:41:21;;;;;;;9.63;5.50;;;;;;;;;;5104942;28;20216;-69
2023/03/17 06:43:47;;;;;;;9.07;5.68;;;;;;;;;;5105117;28;20233;-69
2023/03/17 06:46:13;;;;;;;6.93;5.60;;;;;;;;;;5105116;28;20241;-69
2023/03/17 06:48:40;;;;;;;13.38;6.40;;;;;;;;;;5104855;28;20196;-69
2023/03/17 06:51:06;;;;;;;7.72;6.05;;;;;;;;;;5104886;28;20196;-69
2023/03/17 06:53:33;;;;;;;10.88;6.20;;;;;;;;;;5104126;28;20204;-69
2023/03/17 06:56:00;;;;;;;10.10;5.53;;;;;;;;;;5104816;28;20199;-69
2023/03/17 06:58:26;;;;;;;7.88;5.90;;;;;;;;;;5104892;28;20241;-70
2023/03/17 07:00:53;;;;;;;8.93;6.30;;;;;;;;;;5104603;28;20241;-69
2023/03/17 07:03:20;;;;;;;7.35;5.93;;;;;;;;;;5104714;28;20196;-69
2023/03/17 07:05:47;;;;;;;10.35;6.55;;;;;;;;;;5104534;28;20513;-69
2023/03/17 07:08:14;;;;;;;9.27;6.85;;;;;;;;;;5104543;28;20247;-69
2023/03/17 07:10:41;;;;;;;10.80;7.63;;;;;;;;;;5104341;28;20200;-69
2023/03/17 07:13:09;;;;;;;13.43;7.43;;;;;;;;;;5104912;28;20204;-69
2023/03/17 07:15:36;;;;;;;11.60;7.35;;;;;;;;;;5104462;28;20230;-69
2023/03/17 07:18:02;;;;;;;13.00;7.32;;;;;;;;;;5104473;28;20195;-69
2023/03/17 07:20:29;;;;;;;8.25;6.30;;;;;;;;;;5104181;28;20215;-70
2023/03/17 07:22:55;;;;;;;8.25;7.05;;;;;;;;;;5104569;28;20463;-69
2023/03/17 07:25:21;;;;;;;10.00;7.38;;;;;;;;;;5104241;28;20217;-69
2023/03/17 07:27:48;;;;;;;8.00;6.85;;;;;;;;;;5104609;28;20216;-69
2023/03/17 07:30:17;;;;;;;9.65;6.95;;;;;;;;;;5104270;28;20539;-69
2023/03/17 07:32:44;;;;;;;10.02;6.90;;;;;;;;;;5104328;28;20196;-69
2023/03/17 07:35:10;;;;;;;6.60;6.00;;;;;;;;;;5104009;28;20195;-69
2023/03/17 07:37:37;;;;;;;9.60;7.55;;;;;;;;;;5104525;28;20199;-69
2023/03/17 07:40:05;;;;;;;11.35;6.88;;;;;;;;;;5104036;28;20451;-69
2023/03/17 07:42:31;;;;;;;10.70;7.32;;;;;;;;;;5104097;28;20200;-69
2023/03/17 07:44:58;;;;;;;10.30;6.82;;;;;;;;;;5103985;28;20203;-69
2023/03/17 07:47:25;;;;;;;7.57;6.43;;;;;;;;;;5103755;28;20191;-62
2023/03/17 07:49:52;;;;;;;9.40;6.13;;;;;;;;;;5103826;28;20228;-61
2023/03/17 07:52:18;;;;;;;11.85;6.93;;;;;;;;;;5104132;28;20196;-62
2023/03/17 07:54:44;;;;;;;10.75;6.55;;;;;;;;;;5083593;28;20562;-60
2023/03/17 07:57:11;;;;;;;17.88;6.85;;;;;;;;;;5087368;28;20448;-60
2023/03/17 07:59:38;;;;;;;9.60;5.95;;;;;;;;;;5078722;28;20216;-59
2023/03/17 08:02:05;;;;;;;8.50;6.28;;;;;;;;;;5079129;28;20423;-59
2023/03/17 08:04:33;;;;;;;7.40;6.45;;;;;;;;;;5093593;28;20305;-60
2023/03/17 08:07:00;;;;;;;9.77;7.20;;;;;;;;;;5094373;28;20207;-60
2023/03/17 08:09:26;;;;;;;10.32;7.07;;;;;;;;;;5094116;28;20220;-60
2023/03/17 08:11:52;;;;;;;12.18;7.03;;;;;;;;;;5089599;28;20207;-60
2023/03/17 08:14:19;;;;;;;9.18;6.38;;;;;;;;;;5096762;28;20527;-61
2023/03/17 08:16:46;;;;;;;8.48;6.45;;;;;;;;;;5096642;28;20214;-61
2023/03/17 08:19:12;;;;;;;11.48;6.60;;;;;;;;;;5096059;28;20305;-59
2023/03/17 08:21:40;;;;;;;8.57;6.35;;;;;;;;;;5096531;28;20299;-60
2023/03/17 08:24:06;;;;;;;9.90;6.28;;;;;;;;;;5096605;28;20243;-59
2023/03/17 08:26:32;;;;;;;7.68;6.15;;;;;;;;;;5096666;28;20481;-60
2023/03/17 08:28:59;;;;;;;8.60;6.47;;;;;;;;;;5092546;28;20602;-59
2023/03/17 08:31:26;;;;;;;6.43;5.72;;;;;;;;;;5096020;28;20348;-60
2023/03/17 08:33:55;;;;;;;10.00;6.43;;;;;;;;;;5095962;28;20211;-60
2023/03/17 08:36:22;;;;;;;9.00;6.47;;;;;;;;;;5096065;28;20371;-58
2023/03/17 08:38:50;;;;;;;9.35;6.35;;;;;;;;;;5095061;28;20257;-60
2023/03/17 08:41:17;;;;;;;9.00;6.47;;;;;;;;;;5095806;28;20253;-58
2023/03/17 08:43:44;;;;;;;9.15;5.97;;;;;;;;;;5094869;28;20211;-59
2023/03/17 08:46:13;;;;;;;6.88;5.38;;;;;;;;;;5094654;28;20215;-59
2023/03/17 08:48:40;;;;;;;5.30;4.88;;;;;;;;;;5094900;28;20212;-59
2023/03/17 08:51:06;;;;;;;8.70;5.30;;;;;;;;;;5095368;28;20280;-59
2023/03/17 08:53:33;;;;;;;10.73;4.80;;;;;;;;;;5095200;28;20282;-59
2023/03/17 08:56:01;;;;;;;7.35;4.82;;;;;;;;;;5095845;28;20211;-58
2023/03/17 08:58:28;;;;;;;6.15;5.20;;;;;;;;;;5093654;28;20203;-60
2023/03/17 09:00:54;;;;;;;5.18;4.68;;;;;;;;;;5095917;28;20226;-60
2023/03/17 09:03:20;;;;;;;5.13;4.50;;;;;;;;;;5095779;28;20249;-60
2023/03/17 09:05:48;;;;;;;7.03;5.15;;;;;;;;;;5096043;28;20218;-60
2023/03/17 09:08:14;;;;;;;7.28;4.80;;;;;;;;;;5095639;28;20218;-60
2023/03/17 09:10:41;;;;;;;5.53;4.97;;;;;;;;;;5095315;28;20251;-60
2023/03/17 09:13:09;;;;;;;6.20;5.05;;;;;;;;;;5095491;28;20219;-60
2023/03/17 09:15:36;;;;;;;9.13;4.45;;;;;;;;;;5095315;28;20211;-60
2023/03/17 09:18:03;;;;;;;11.48;4.68;;;;;;;;;;5095191;28;20565;-60
2023/03/17 09:20:30;;;;;;;5.55;4.22;;;;;;;;;;5095420;28;20219;-59
2023/03/17 09:22:56;;;;;;;7.10;3.90;;;;;;;;;;5095822;28;20257;-61
2023/03/17 09:25:23;;;;;;;4.22;3.80;;;;;;;;;;5096161;28;20530;-61
2023/03/17 09:27:49;;;;;;;4.78;3.70;;;;;;;;;;5095050;28;20227;-59
2023/03/17 09:30:17;;;;;;;4.30;3.35;;;;;;;;;;5095835;28;20561;-60
2023/03/17 09:32:44;;;;;;;4.80;4.20;;;;;;;;;;5095298;28;20243;-59
2023/03/17 09:35:10;;;;;;;4.75;3.90;;;;;;;;;;5095220;28;20211;-60
2023/03/17 09:37:37;;;;;;;4.68;3.30;;;;;;;;;;5087150;28;20208;-59
2023/03/17 09:40:07;;;;;;;9.02;3.58;;;;;;;;;;5084688;28;20407;-60
2023/03/17 09:42:40;;;;;;;4.63;3.47;;;;;;;;;;5092153;28;20765;-60
2023/03/17 09:45:12;;;;;;;5.00;3.50;;;;;;;;;;5095674;28;20215;-60
2023/03/17 09:47:57;;;;;;;5.78;4.32;;;;;;;;;;5095439;28;20207;-60
2023/03/17 09:50:25;;;;;;;4.28;3.88;;;;;;;;;;5094881;28;20215;-60
2023/03/17 09:52:51;;;;;;;10.45;4.07;;;;;;;;;;5095631;28;20682;-60
2023/03/17 09:55:22;;;;;;;6.63;4.70;;;;;;;;;;5096066;28;20256;-60
2023/03/17 09:57:50;;;;;;;5.00;3.88;;;;;;;;;;5095542;28;20599;-59
2023/03/17 10:00:18;;;;;;;6.97;3.53;;;;;;;;;;5095337;28;20247;-61
2023/03/17 10:02:46;;;;;;;6.38;3.80;;;;;;;;;;5096085;28;20238;-60
2023/03/17 10:05:18;;;;;;;3.83;3.30;;;;;;;;;;5095076;28;20215;-61
2023/03/17 10:07:46;;;;;;;4.93;3.03;;;;;;;;;;5082642;28;20211;-61
2023/03/17 10:10:14;;;;;;;3.75;2.75;;;;;;;;;;5096255;28;20422;-60
2023/03/17 10:12:45;;;;;;;2.60;2.40;;;;;;;;;;5095430;28;20211;-60
2023/03/17 10:15:16;;;;;;;2.80;2.60;;;;;;;;;;5095637;28;20450;-60
2023/03/17 10:17:42;;;;;;;2.50;2.30;;;;;;;;;;5095528;28;20410;-60
2023/03/17 10:20:12;;;;;;;3.35;2.28;;;;;;;;;;5095690;28;20553;-61
2023/03/17 10:22:42;;;;;;;3.08;2.58;;;;;;;;;;5095122;28;20234;-61
2023/03/17 10:25:13;;;;;;;4.05;2.67;;;;;;;;;;5095537;28;20239;-60
2023/03/17 10:27:40;;;;;;;3.40;2.40;;;;;;;;;;5095556;28;20228;-61
2023/03/17 10:30:13;;;;;;;5.55;2.88;;;;;;;;;;5098764;28;20417;-61
2023/03/17 10:32:40;;;;;;;3.88;2.28;;;;;;;;;;5094968;28;20207;-61
2023/03/17 10:35:07;;;;;;;2.28;2.00;;;;;;;;;;5086107;28;20204;-60
2023/03/17 10:37:35;;;;;;;3.38;2.67;;;;;;;;;;5098056;28;20212;-60
2023/03/17 10:40:04;;;;;;;4.38;2.42;;;;;;;;;;5098556;28;20266;-60
2023/03/17 10:42:31;;;;;;;3.00;1.67;;;;;;;;;;5098097;28;20231;-60
2023/03/17 10:44:58;;;;;;;4.53;1.88;;;;;;;;;;5097814;28;20223;-60
2023/03/17 10:47:31;;;;;;;4.55;1.98;;;;;;;;;;5097881;28;20470;-60
2023/03/17 10:49:59;;;;;;;2.00;1.83;;;;;;;;;;5098445;28;20400;-60
2023/03/17 10:52:26;;;;;;;8.40;1.98;;;;;;;;;;5098047;28;20204;-60
2023/03/17 10:54:53;;;;;;;3.50;2.35;;;;;;;;;;5097972;28;20212;-60
2023/03/17 10:57:21;;;;;;;3.60;2.28;;;;;;;;;;5098007;28;20613;-60
2023/03/17 10:59:51;;;;;;;3.70;2.03;;;;;;;;;;5097526;28;20215;-60
2023/03/17 11:02:19;;;;;;;2.25;2.05;;;;;;;;;;5098051;28;20432;-60
2023/03/17 11:04:45;;;;;;;3.55;2.38;;;;;;;;;;5098461;28;20253;-60
2023/03/17 11:07:16;;;;;;;2.70;2.22;;;;;;;;;;5098085;28;20216;-60
2023/03/17 11:09:42;;;;;;;3.05;1.80;;;;;;;;;;5098426;28;20256;-60
2023/03/17 11:12:20;;;;;;;2.38;1.88;;;;;;;;;;5097299;28;20215;-62
2023/03/17 11:14:49;;;;;;;2.30;2.10;;;;;;;;;;5093625;28;20578;-62
2023/03/17 11:17:17;;;;;;;1.88;1.77;;;;;;;;;;5097842;28;20515;-62
2023/03/17 11:19:49;;;;;;;1.80;1.60;;;;;;;;;;5098275;28;20273;-62
2023/03/17 11:22:18;;;;;;;4.43;1.60;;;;;;;;;;5097234;28;20243;-59
2023/03/17 11:24:49;;;;;;;1.92;1.83;;;;;;;;;;5097980;28;20207;-59
2023/03/17 11:27:22;;;;;;;3.17;2.28;;;;;;;;;;5096888;28;20298;-59
2023/03/17 11:29:53;;;;;;;5.68;2.00;;;;;;;;;;5097164;28;20261;-58
2023/03/17 11:32:24;;;;;;;3.28;2.00;;;;;;;;;;5097258;28;20535;-59
2023/03/17 11:34:54;;;;;;;2.88;2.03;;;;;;;;;;5097570;28;20447;-59
2023/03/17 11:37:30;;;;;;;2.97;1.45;;;;;;;;;;5097567;28;20553;-59
2023/03/17 11:40:01;;;;;;;3.53;1.70;;;;;;;;;;5097032;28;20287;-59
2023/03/17 11:42:31;;;;;;;2.05;1.60;;;;;;;;;;5097373;28;20504;-59
2023/03/17 11:45:02;;;;;;;2.45;1.88;;;;;;;;;;5097197;28;20219;-59
2023/03/17 11:47:38;;;;;;;1.88;1.77;;;;;;;;;;5096904;28;20283;-60
2023/03/17 11:50:11;;;;;;;2.42;1.90;;;;;;;;;;5097005;28;20215;-60
2023/03/17 11:52:50;;;;;;;4.75;1.90;;;;;;;;;;5096857;28;20448;-59
2023/03/17 11:55:21;;;;;;;2.25;1.88;;;;;;;;;;5097348;28;20216;-60
2023/03/17 11:57:52;;;;;;;1.63;1.52;;;;;;;;;;5097148;28;20496;-61
2023/03/17 12:00:22;;;;;;;4.82;1.70;;;;;;;;;;5096894;28;20212;-60
2023/03/17 12:02:53;;;;;;;1.60;1.35;;;;;;;;;;5096993;28;20266;-60
2023/03/17 12:05:22;;;;;;;3.08;1.30;;;;;;;;;;5097941;28;20292;-60
2023/03/17 12:07:52;;;;;;;2.97;1.73;;;;;;;;;;5097151;28;20211;-60
2023/03/17 12:10:21;;;;;;;1.70;1.60;;;;;;;;;;5097008;28;20227;-59
2023/03/17 12:12:50;;;;;;;3.22;1.52;;;;;;;;;;5097478;28;20208;-60
2023/03/17 12:15:19;;;;;;;3.35;1.50;;;;;;;;;;5096616;28;20218;-59
2023/03/17 12:17:50;;;;;;;5.97;1.58;;;;;;;;;;5097257;28;20435;-60
2023/03/17 12:20:19;;;;;;;2.22;1.42;;;;;;;;;;5096958;28;20218;-61
2023/03/17 12:22:48;;;;;;;6.05;1.70;;;;;;;;;;5082217;28;20231;-61
2023/03/17 12:25:18;;;;;;;1.27;1.27;;;;;;;;;;5084636;28;20622;-61
2023/03/17 12:27:48;;;;;;;2.42;1.52;;;;;;;;;;5093655;28;20234;-59
2023/03/17 12:30:17;;;;;;;2.13;1.70;;;;;;;;;;5096191;28;20242;-60
2023/03/17 12:32:48;;;;;;;1.58;1.45;;;;;;;;;;5092962;28;20200;-60
2023/03/17 12:35:23;;;;;;;1.70;1.60;;;;;;;;;;5097820;28;20578;-60
2023/03/17 12:37:50;;;;;;;4.30;1.60;;;;;;;;;;5096577;28;20286;-60
2023/03/17 12:40:20;;;;;;;1.40;1.35;;;;;;;;;;5096167;28;20257;-60
2023/03/17 12:42:51;;;;;;;1.70;1.27;;;;;;;;;;5096616;28;20547;-60
2023/03/17 12:45:32;;;;;;;2.88;1.20;;;;;;;;;;5095650;28;20211;-59
2023/03/17 12:48:06;;;;;;;3.40;1.23;;;;;;;;;;5093697;28;20539;-60
2023/03/17 12:50:41;;;;;;;2.30;1.30;;;;;;;;;;5095915;28;20207;-59
2023/03/17 12:53:20;;;;;;;2.50;1.20;;;;;;;;;;5095141;28;20214;-59
2023/03/17 12:55:49;;;;;;;1.10;1.02;;;;;;;;;;5095050;28;20211;-60
2023/03/17 12:58:21;;;;;;;1.55;1.40;;;;;;;;;;5096084;28;20226;-60
2023/03/17 13:00:49;;;;;;;0.60;0.60;;;;;;;;;;5095612;28;20410;-60
2023/03/17 13:03:21;;;;;;;0.88;0.80;;;;;;;;;;5096202;28;20223;-61
2023/03/17 13:05:50;;;;;;;2.20;1.00;;;;;;;;;;5094906;28;20211;-62
2023/03/17 13:08:21;;;;;;;1.67;0.90;;;;;;;;;;5094520;28;20211;-60
2023/03/17 13:10:47;;;;;;;2.70;0.82;;;;;;;;;;5094953;28;20215;-61
2023/03/17 13:13:35;;;;;;;0.80;0.80;;;;;;;;;;5094828;28;20253;-61
2023/03/17 13:16:03;;;;;;;1.25;1.15;;;;;;;;;;5095209;28;20406;-61
2023/03/17 13:18:45;;;;;;;0.77;0.77;;;;;;;;;;5092537;28;20401;-60
2023/03/17 13:21:15;;;;;;;0.80;0.80;;;;;;;;;;5082727;28;20345;-60
2023/03/17 13:23:42;;;;;;;1.35;1.00;;;;;;;;;;5081646;28;20195;-60
2023/03/17 13:26:11;;;;;;;1.25;0.85;;;;;;;;;;5083721;28;20515;-59
2023/03/17 13:28:42;;;;;;;0.90;0.90;;;;;;;;;;5092919;28;20228;-60
2023/03/17 13:31:10;;;;;;;2.33;0.90;;;;;;;;;;5095284;28;20218;-61
2023/03/17 13:33:40;;;;;;;0.73;0.73;;;;;;;;;;5094787;28;20253;-60
2023/03/17 13:36:28;;;;;;;1.50;1.40;;;;;;;;;;5095583;28;20219;-60
2023/03/17 13:39:16;;;;;;;1.17;1.17;;;;;;;;;;5095703;28;20282;-60
2023/03/17 13:41:49;;;;;;;2.45;1.27;;;;;;;;;;5086517;28;20542;-60
2023/03/17 13:44:24;;;;;;;2.50;1.05;;;;;;;;;;5090768;28;20208;-60
2023/03/17 13:46:50;;;;;;;0.90;0.90;;;;;;;;;;5095000;28;20384;-60
2023/03/17 13:49:25;;;;;;;2.35;0.60;;;;;;;;;;5095992;28;20511;-60
2023/03/17 13:51:54;;;;;;;0.70;0.70;;;;;;;;;;5095510;28;20266;-60
2023/03/17 13:54:28;;;;;;;1.25;0.70;;;;;;;;;;5095082;28;20533;-62
2023/03/17 13:56:55;;;;;;;1.95;0.88;;;;;;;;;;5095658;28;20211;-62
2023/03/17 13:59:23;;;;;;;1.42;0.93;;;;;;;;;;5095199;28;20215;-62
2023/03/17 14:01:52;;;;;;;0.73;0.70;;;;;;;;;;5096136;28;20538;-62
2023/03/17 14:04:20;;;;;;;1.15;0.90;;;;;;;;;;5099544;28;20465;-62
2023/03/17 14:06:49;;;;;;;2.78;1.08;;;;;;;;;;5098904;28;20538;-62
2023/03/17 14:09:21;;;;;;;1.05;0.95;;;;;;;;;;5097877;28;20260;-61
2023/03/17 14:11:47;;;;;;;1.42;1.10;;;;;;;;;;5099800;28;20550;-61
2023/03/17 14:14:17;;;;;;;0.70;0.70;;;;;;;;;;5098689;28;20211;-61
2023/03/17 14:16:45;;;;;;;0.70;0.70;;;;;;;;;;5098391;28;20212;-60
2023/03/17 14:19:17;;;;;;;1.73;0.80;;;;;;;;;;5099129;28;20250;-61
2023/03/17 14:21:43;;;;;;;3.97;0.80;;;;;;;;;;5098695;28;20204;-61
2023/03/17 14:24:17;;;;;;;1.13;0.90;;;;;;;;;;5092041;28;20535;-60
2023/03/17 14:26:47;;;;;;;1.60;0.65;;;;;;;;;;5088006;28;20210;-61
2023/03/17 14:29:14;;;;;;;2.05;0.70;;;;;;;;;;5088632;28;20553;-61
2023/03/17 14:31:41;;;;;;;0.68;0.68;;;;;;;;;;5088870;28;20215;-62
2023/03/17 14:34:12;;;;;;;2.83;0.80;;;;;;;;;;5099715;28;20276;-61
2023/03/17 14:36:38;;;;;;;2.25;1.00;;;;;;;;;;5098853;28;20534;-61
2023/03/17 14:39:05;;;;;;;8.63;0.90;;;;;;;;;;5099484;28;20522;-61
2023/03/17 14:41:33;;;;;;;4.57;0.90;;;;;;;;;;5099200;28;20410;-62
2023/03/17 14:44:01;;;;;;;3.90;0.88;;;;;;;;;;5098476;28;20239;-62
2023/03/17 14:46:30;;;;;;;1.58;0.80;;;;;;;;;;5098932;28;20515;-62
2023/03/17 14:48:58;;;;;;;1.33;0.95;;;;;;;;;;5098149;28;20216;-59